Time;durP1;ratioP1;P1;durP2;ratioP2;P2;SDS_P1;SDS_P2;PMS_P1;PMS_P2;Temp;Humidity;BMP_temperature;BMP_pressure;BME280_temperature;BME280_humidity;BME280_pressure;Samples;Min_cycle;Max_cycle;Signal;HPM_P1;HPM_P2
2022/11/12 06:57:34;;;;;;;2.80;2.43;;;2.50;99.90;;;;;;5074681;28;20604;-78
2022/11/12 07:00:00;;;;;;;4.93;2.73;;;;;;;;;;5074350;28;20404;-79
2022/11/12 07:45:33;;;;;;;8.00;4.67;;;3.80;99.90;;;;;;5138069;27;20290;-79
2022/11/12 07:47:59;;;;;;;5.80;4.10;;;3.70;99.90;;;;;;5136343;28;20282;-80
2022/11/12 07:50:24;;;;;;;5.57;4.57;;;3.70;99.90;;;;;;5136003;28;20222;-80
2022/11/12 07:52:50;;;;;;;7.17;5.43;;;3.70;99.90;;;;;;5136094;28;20183;-80
2022/11/12 07:55:16;;;;;;;7.50;5.00;;;3.70;99.90;;;;;;5136539;27;20198;-80
2022/11/12 07:57:42;;;;;;;6.20;4.00;;;;;;;;;;5136046;27;20171;-79
2022/11/12 08:00:08;;;;;;;5.60;4.40;;;;;;;;;;5134112;28;20218;-79
2022/11/12 08:02:33;;;;;;;6.13;4.40;;;3.90;99.90;;;;;;5134413;28;20175;-79
2022/11/12 08:04:59;;;;;;;6.90;4.43;;;4.20;99.90;;;;;;5133648;27;20256;-80
2022/11/12 08:07:25;;;;;;;6.03;4.60;;;4.10;99.90;;;;;;5135657;27;20174;-79
2022/11/12 08:09:50;;;;;;;4.47;3.87;;;4.60;99.90;;;;;;5133882;28;20172;-79
2022/11/12 08:12:16;;;;;;;4.93;3.90;;;;;;;;;;5132200;28;20176;-78
2022/11/12 08:14:42;;;;;;;3.37;3.07;;;5.00;99.90;;;;;;5133424;28;20204;-79
2022/11/12 08:17:08;;;;;;;5.17;3.67;;;5.00;99.90;;;;;;5135648;28;20236;-79
2022/11/12 08:19:33;;;;;;;7.93;3.83;;;5.10;99.90;;;;;;5135582;28;20184;-79
2022/11/12 08:21:59;;;;;;;5.63;3.73;;;5.00;99.90;;;;;;5135166;28;20176;-80
2022/11/12 08:24:25;;;;;;;5.73;4.10;;;5.20;99.90;;;;;;5132522;28;20212;-79
2022/11/12 08:26:50;;;;;;;5.47;3.93;;;5.30;99.90;;;;;;5136525;28;20176;-78
2022/11/12 08:29:16;;;;;;;4.90;3.17;;;5.40;99.90;;;;;;5134802;28;20180;-80
2022/11/12 08:31:42;;;;;;;3.20;2.83;;;5.50;99.90;;;;;;5138216;28;20538;-80
2022/11/12 08:34:13;;;;;;;4.70;3.20;;;5.70;99.90;;;;;;5137360;28;20198;-80
2022/11/12 08:36:39;;;;;;;3.67;2.87;;;5.70;99.90;;;;;;5136832;28;20277;-79
2022/11/12 08:39:06;;;;;;;4.50;3.50;;;5.80;99.90;;;;;;5136076;28;20630;-80
2022/11/12 08:41:32;;;;;;;5.97;4.40;;;6.00;99.90;;;;;;5136093;28;20237;-80
2022/11/12 08:43:58;;;;;;;4.00;3.10;;;6.30;99.90;;;;;;5132443;28;20240;-79
2022/11/12 08:46:24;;;;;;;5.50;4.37;;;6.60;99.90;;;;;;5132683;28;20182;-80
2022/11/12 08:48:50;;;;;;;4.77;3.57;;;6.90;99.90;;;;;;5133781;28;20382;-80
2022/11/12 08:51:15;;;;;;;3.30;3.00;;;7.40;99.90;;;;;;5133460;28;20655;-79
2022/11/12 08:53:41;;;;;;;3.40;2.63;;;7.80;99.90;;;;;;5132145;28;20199;-79
2022/11/12 08:56:07;;;;;;;5.17;3.07;;;7.80;99.90;;;;;;5123238;28;20547;-78
2022/11/12 08:58:32;;;;;;;6.90;3.80;;;7.80;99.90;;;;;;5119619;28;20532;-78
2022/11/12 09:01:07;;;;;;;4.77;3.77;;;7.90;99.90;;;;;;5120547;28;20191;-80
2022/11/12 09:03:32;;;;;;;3.17;2.57;;;8.40;99.90;;;;;;5120434;28;20190;-80
2022/11/12 09:06:02;;;;;;;3.77;2.90;;;8.40;99.90;;;;;;5121136;28;20204;-81
2022/11/12 09:08:27;;;;;;;5.80;3.00;;;8.80;99.90;;;;;;5119103;28;20171;-79
2022/11/12 09:10:53;;;;;;;7.00;4.20;;;9.00;99.90;;;;;;5119842;28;20651;-78
2022/11/12 09:13:19;;;;;;;10.53;5.27;;;9.30;99.90;;;;;;5119050;28;20235;-80
2022/11/12 09:15:46;;;;;;;6.03;3.47;;;9.80;99.90;;;;;;5119726;28;20210;-79
2022/11/12 09:18:14;;;;;;;3.10;2.80;;;10.40;99.90;;;;;;5118247;28;20637;-79
2022/11/12 09:20:40;;;;;;;3.40;2.50;;;10.90;99.90;;;;;;5119532;28;20202;-80
2022/11/12 09:23:09;;;;;;;3.33;2.10;;;11.10;99.90;;;;;;5119303;28;20259;-79
2022/11/12 09:25:35;;;;;;;3.27;2.33;;;11.10;99.90;;;;;;5118353;28;20259;-80
2022/11/12 09:28:15;;;;;;;2.03;1.80;;;10.90;99.90;;;;;;5119381;28;20182;-81
2022/11/12 09:30:47;;;;;;;7.53;2.23;;;10.90;99.90;;;;;;5119783;28;20175;-81
2022/11/12 09:33:14;;;;;;;2.53;2.30;;;11.30;99.90;;;;;;5118266;28;20178;-80
2022/11/12 09:35:40;;;;;;;6.40;3.10;;;11.70;99.90;;;;;;5119091;28;20198;-79
2022/11/12 09:38:05;;;;;;;5.50;4.33;;;11.80;99.90;;;;;;5118793;28;20537;-79
2022/11/12 09:40:49;;;;;;;8.70;4.70;;;11.80;99.90;;;;;;5119219;28;20188;-80
2022/11/12 09:43:36;;;;;;;5.60;3.40;;;11.60;99.90;;;;;;5121974;28;20170;-81
2022/11/12 09:46:16;;;;;;;6.77;4.40;;;11.50;99.90;;;;;;5120570;28;20170;-82
2022/11/12 09:48:48;;;;;;;44.20;28.23;;;11.30;99.90;;;;;;5120082;28;20156;-81
2022/11/12 09:51:45;;;;;;;11.30;8.87;;;11.10;99.90;;;;;;5118500;28;20177;-80
2022/11/12 09:54:26;;;;;;;4.13;3.73;;;10.90;99.90;;;;;;5067312;28;20237;-80
2022/11/12 09:56:53;;;;;;;6.33;2.60;;;10.70;99.90;;;;;;5126937;28;20184;-79
2022/11/12 09:59:21;;;;;;;2.40;2.20;;;10.70;99.90;;;;;;5118151;28;20180;-80
2022/11/12 10:02:22;;;;;;;3.47;2.53;;;10.80;99.90;;;;;;5123456;28;20231;-79
2022/11/12 10:05:06;;;;;;;3.07;2.10;;;10.80;99.90;;;;;;5124779;28;20212;-79
2022/11/12 10:07:47;;;;;;;2.50;1.80;;;10.90;99.90;;;;;;5124537;28;20206;-76
2022/11/12 10:10:29;;;;;;;4.87;2.00;;;11.00;99.90;;;;;;5118981;28;20167;-80
2022/11/12 10:13:06;;;;;;;1.77;1.43;;;11.00;99.90;;;;;;5120830;28;20156;-79
2022/11/12 10:19:02;;;;;;;1.97;1.47;;;11.20;99.90;;;;;;5121309;28;20255;-78
2022/11/12 10:21:46;;;;;;;6.47;1.47;;;11.30;99.90;;;;;;5118252;28;20166;-80
2022/11/12 10:24:12;;;;;;;1.80;1.10;;;11.50;99.90;;;;;;5118503;28;20205;-79
2022/11/12 10:26:39;;;;;;;1.73;1.40;;;11.60;99.90;;;;;;5118710;28;20177;-82
2022/11/12 10:29:10;;;;;;;2.67;1.30;;;11.70;99.90;;;;;;5118509;28;20512;-80
2022/11/12 10:31:36;;;;;;;4.00;2.07;;;11.80;99.90;;;;;;5116596;28;20178;-79
2022/11/12 10:34:20;;;;;;;2.17;1.83;;;11.90;99.90;;;;;;5118136;28;20201;-80
2022/11/12 10:36:58;;;;;;;2.13;1.10;;;12.00;99.90;;;;;;5116119;28;20207;-80
2022/11/12 10:39:41;;;;;;;1.53;1.07;;;12.30;99.90;;;;;;5115802;28;20206;-80
2022/11/12 10:42:10;;;;;;;10.33;2.23;;;12.50;99.90;;;;;;5115770;28;20178;-80
2022/11/12 10:44:36;;;;;;;2.30;1.10;;;12.80;99.90;;;;;;5117457;28;20268;-79
2022/11/12 10:47:22;;;;;;;2.60;1.50;;;13.10;99.90;;;;;;5117128;28;20618;-80
2022/11/12 10:50:18;;;;;;;1.63;1.40;;;13.40;99.90;;;;;;5117713;28;20255;-79
2022/11/12 10:52:58;;;;;;;1.93;1.53;;;13.40;99.90;;;;;;5120127;28;20552;-80
2022/11/12 10:55:27;;;;;;;2.03;1.47;;;13.20;99.90;;;;;;5122331;28;20199;-81
2022/11/12 10:58:10;;;;;;;1.97;1.70;;;13.10;99.90;;;;;;5124184;28;20174;-81
2022/11/12 11:00:59;;;;;;;3.07;2.23;;;12.90;99.90;;;;;;5124293;28;20182;-79
2022/11/12 11:03:43;;;;;;;3.77;2.20;;;12.70;99.90;;;;;;5114860;28;20227;-81
2022/11/12 11:06:15;;;;;;;3.23;2.57;;;12.70;99.90;;;;;;5116333;28;20211;-80
2022/11/12 11:08:42;;;;;;;6.07;3.67;;;12.60;99.90;;;;;;5116042;28;20651;-79
2022/11/12 11:11:29;;;;;;;2.77;2.20;;;12.60;99.90;;;;;;5115262;28;20537;-79
2022/11/12 11:14:19;;;;;;;4.30;2.17;;;12.50;99.90;;;;;;5115790;28;20567;-80
2022/11/12 11:16:52;;;;;;;4.03;2.57;;;12.30;99.90;;;;;;5104392;28;20198;-79
2022/11/12 11:19:19;;;;;;;4.13;2.70;;;12.30;99.90;;;;;;5115304;28;20577;-79
2022/11/12 11:21:47;;;;;;;4.97;3.03;;;12.30;99.90;;;;;;5117051;28;20649;-78
2022/11/12 11:24:28;;;;;;;6.87;3.20;;;12.30;99.90;;;;;;5115432;28;20213;-80
2022/11/12 11:27:19;;;;;;;7.13;2.67;;;12.30;99.90;;;;;;5115224;28;20185;-79
2022/11/12 11:30:00;;;;;;;5.47;3.63;;;12.30;99.90;;;;;;5117088;28;20220;-79
2022/11/12 11:33:02;;;;;;;5.70;2.80;;;12.30;99.90;;;;;;5114764;28;20583;-80
2022/11/12 11:35:55;;;;;;;3.93;3.50;;;12.30;99.90;;;;;;5116928;28;20191;-79
2022/11/12 11:38:47;;;;;;;4.90;3.93;;;12.30;99.90;;;;;;5115576;28;20339;-80
2022/11/12 11:41:40;;;;;;;4.47;3.40;;;12.20;99.90;;;;;;5113052;28;20193;-79
2022/11/12 11:44:31;;;;;;;4.50;3.47;;;12.20;99.90;;;;;;5116345;28;20213;-81
2022/11/12 11:47:05;;;;;;;6.87;3.77;;;12.10;99.90;;;;;;5116104;28;20220;-80
2022/11/12 11:49:49;;;;;;;3.37;3.00;;;12.10;99.90;;;;;;5115468;28;20191;-79
2022/11/12 11:52:48;;;;;;;8.47;3.20;;;12.10;99.90;;;;;;5114464;28;20173;-80
2022/11/12 11:55:14;;;;;;;4.50;3.30;;;12.00;99.90;;;;;;5114705;28;20314;-80
2022/11/12 11:58:04;;;;;;;3.73;3.27;;;12.00;99.90;;;;;;5115607;28;20233;-80
2022/11/12 12:00:53;;;;;;;5.17;3.50;;;12.10;99.90;;;;;;5122358;28;20207;-79
2022/11/12 12:03:36;;;;;;;4.63;3.47;;;12.30;99.90;;;;;;5124959;28;20221;-80
2022/11/12 12:06:36;;;;;;;5.40;3.97;;;12.30;99.90;;;;;;5125657;28;20152;-81
2022/11/12 12:09:34;;;;;;;6.93;3.93;;;12.20;99.90;;;;;;5107248;28;20192;-81
2022/11/12 12:12:12;;;;;;;6.20;4.47;;;12.20;99.90;;;;;;5083727;28;20229;-81
2022/11/12 12:15:00;;;;;;;6.27;3.97;;;12.00;99.90;;;;;;5120772;28;20188;-81
2022/11/12 12:17:38;;;;;;;3.93;3.40;;;12.00;99.90;;;;;;5087568;28;20661;-81
2022/11/12 12:20:19;;;;;;;5.30;3.70;;;11.90;99.90;;;;;;5116029;28;20167;-81
2022/11/12 12:22:50;;;;;;;3.47;3.17;;;11.80;99.90;;;;;;5114986;28;20183;-79
2022/11/12 12:25:38;;;;;;;3.90;3.50;;;11.80;99.90;;;;;;5115065;28;20239;-80
2022/11/12 12:28:42;;;;;;;4.50;3.50;;;11.80;99.90;;;;;;5115163;28;20209;-80
2022/11/12 12:31:19;;;;;;;3.77;3.30;;;11.70;99.90;;;;;;5116495;28;20182;-80
2022/11/12 12:33:56;;;;;;;4.37;3.83;;;11.60;99.90;;;;;;5119970;28;20563;-80
2022/11/12 12:36:29;;;;;;;4.97;3.80;;;11.60;99.90;;;;;;5119736;28;20234;-80
2022/11/12 12:39:10;;;;;;;4.57;4.03;;;11.60;99.90;;;;;;5118393;28;20171;-79
2022/11/12 12:42:08;;;;;;;6.73;4.73;;;11.60;99.90;;;;;;5121518;28;20605;-80
2022/11/12 12:45:03;;;;;;;4.67;3.87;;;11.70;99.90;;;;;;5118903;28;20694;-79
2022/11/12 12:47:36;;;;;;;5.30;3.87;;;11.70;99.90;;;;;;5117952;28;20318;-80
2022/11/12 12:50:09;;;;;;;4.63;3.83;;;11.60;99.90;;;;;;5117797;28;20189;-80
2022/11/12 12:52:58;;;;;;;4.97;3.47;;;11.70;99.90;;;;;;5117658;28;20183;-81
2022/11/12 12:55:41;;;;;;;5.70;4.60;;;11.70;99.90;;;;;;5117585;28;20196;-80
2022/11/12 12:58:32;;;;;;;7.80;5.30;;;11.70;99.90;;;;;;5117657;28;20182;-80
2022/11/12 13:01:05;;;;;;;10.87;6.03;;;11.80;99.90;;;;;;5110085;28;20184;-80
2022/11/12 13:03:42;;;;;;;10.00;5.03;;;11.80;99.90;;;;;;5117107;28;20186;-81
2022/11/12 13:06:24;;;;;;;7.67;4.80;;;11.80;99.90;;;;;;5118458;28;20587;-79
2022/11/12 13:09:10;;;;;;;12.17;8.20;;;11.80;99.90;;;;;;5117185;28;20566;-79
2022/11/12 13:14:34;;;;;;;6.03;5.07;;;11.60;99.90;;;;;;5119800;28;20222;-80
2022/11/12 13:17:07;;;;;;;5.67;4.50;;;11.60;99.90;;;;;;5118996;28;20636;-81
2022/11/12 13:19:44;;;;;;;5.17;4.37;;;11.50;99.90;;;;;;5118111;28;20652;-81
2022/11/12 13:22:16;;;;;;;6.00;4.63;;;11.50;99.90;;;;;;5119432;28;20616;-81
2022/11/12 13:25:03;;;;;;;5.90;5.17;;;11.30;99.90;;;;;;5119149;28;20558;-81
2022/11/12 13:27:43;;;;;;;6.00;5.40;;;11.30;99.90;;;;;;5120460;28;20179;-82
2022/11/12 13:30:12;;;;;;;7.13;5.30;;;11.20;99.90;;;;;;5118763;28;20276;-81
2022/11/12 13:32:47;;;;;;;5.77;5.17;;;11.20;99.90;;;;;;5119750;28;20174;-80
2022/11/12 13:35:20;;;;;;;7.90;5.13;;;11.10;99.90;;;;;;5119360;28;20193;-82
2022/11/12 13:38:07;;;;;;;6.27;5.60;;;11.10;99.90;;;;;;5128563;28;20176;-82
2022/11/12 13:40:57;;;;;;;6.50;5.70;;;11.00;99.90;;;;;;5120057;28;20177;-81
2022/11/12 13:43:39;;;;;;;6.90;6.20;;;10.90;99.90;;;;;;5121066;28;20185;-81
2022/11/12 13:46:28;;;;;;;8.00;6.40;;;10.90;99.90;;;;;;5121455;28;20176;-81
2022/11/12 13:49:04;;;;;;;6.87;6.17;;;10.90;99.90;;;;;;5120583;28;20175;-81
2022/11/12 13:51:36;;;;;;;9.27;6.30;;;10.80;99.90;;;;;;5122323;28;20175;-81
2022/11/12 13:54:21;;;;;;;7.17;6.47;;;10.80;99.90;;;;;;5119860;28;20230;-82
2022/11/12 13:56:47;;;;;;;13.63;7.43;;;10.80;99.90;;;;;;5118671;28;20540;-81
2022/11/12 13:59:18;;;;;;;9.47;7.40;;;10.80;99.90;;;;;;5119518;28;20186;-81
2022/11/12 14:01:46;;;;;;;10.37;7.60;;;10.80;99.90;;;;;;5116801;28;20249;-82
2022/11/12 14:04:20;;;;;;;12.00;9.37;;;10.80;99.90;;;;;;5116569;28;20211;-80
2022/11/12 14:07:20;;;;;;;11.70;8.87;;;10.80;99.90;;;;;;5118913;28;20171;-81
2022/11/12 14:10:14;;;;;;;10.30;7.80;;;10.70;99.90;;;;;;5115291;28;20629;-81
2022/11/12 14:12:57;;;;;;;10.67;8.53;;;10.60;99.90;;;;;;5112411;28;20191;-80
2022/11/12 14:15:37;;;;;;;10.93;8.10;;;10.50;99.90;;;;;;5119537;28;20203;-81
2022/11/12 14:18:31;;;;;;;11.13;9.20;;;10.50;99.90;;;;;;5119504;28;20176;-80
2022/11/12 14:20:57;;;;;;;9.33;8.33;;;10.50;99.90;;;;;;5120637;28;20198;-81
2022/11/12 14:23:24;;;;;;;17.37;10.00;;;10.30;99.90;;;;;;5120479;28;20657;-80
2022/11/12 14:25:52;;;;;;;19.60;11.00;;;10.30;99.90;;;;;;5118519;28;20179;-81
2022/11/12 14:28:28;;;;;;;12.53;9.30;;;10.30;99.90;;;;;;5118359;28;20689;-79
2022/11/12 14:30:55;;;;;;;11.90;9.23;;;10.20;99.90;;;;;;5120142;28;20522;-81
2022/11/12 14:33:25;;;;;;;11.70;8.13;;;10.10;99.90;;;;;;5120813;28;20198;-80
2022/11/12 14:35:52;;;;;;;15.27;9.60;;;10.10;99.90;;;;;;5117415;28;20172;-81
2022/11/12 14:38:45;;;;;;;13.83;9.43;;;10.00;99.90;;;;;;5116778;28;20207;-83
2022/11/12 14:41:17;;;;;;;12.77;8.67;;;10.00;99.90;;;;;;5117539;28;20655;-80
2022/11/12 14:43:49;;;;;;;14.30;8.83;;;9.90;99.90;;;;;;5118186;28;20546;-81
2022/11/12 14:46:26;;;;;;;16.60;9.10;;;9.90;99.90;;;;;;5119393;28;20164;-82
2022/11/12 14:49:04;;;;;;;10.90;8.50;;;9.80;99.90;;;;;;5117969;28;20616;-80
2022/11/12 14:51:41;;;;;;;16.70;10.90;;;9.80;99.90;;;;;;5118035;28;20168;-81
2022/11/12 14:54:15;;;;;;;12.93;10.30;;;9.60;99.90;;;;;;5116948;28;20195;-81
2022/11/12 14:56:46;;;;;;;14.83;10.40;;;9.50;99.90;;;;;;5120485;28;20167;-81
2022/11/12 14:59:14;;;;;;;13.37;9.80;;;9.40;99.90;;;;;;5118434;28;20181;-80
2022/11/12 15:02:05;;;;;;;15.03;10.80;;;9.20;99.90;;;;;;5116033;28;20175;-81
2022/11/12 15:04:44;;;;;;;14.40;9.30;;;9.10;99.90;;;;;;5116277;28;20210;-81
2022/11/12 15:07:28;;;;;;;15.17;10.53;;;8.90;99.90;;;;;;5116628;28;20688;-81
2022/11/12 15:09:53;;;;;;;18.70;12.77;;;8.80;99.90;;;;;;5118624;28;20195;-80
2022/11/12 15:12:22;;;;;;;22.30;12.93;;;8.60;99.90;;;;;;5119737;28;20171;-81
2022/11/12 15:14:49;;;;;;;20.63;13.40;;;8.50;99.90;;;;;;5117691;28;20278;-81
2022/11/12 15:17:31;;;;;;;17.93;11.27;;;8.40;99.90;;;;;;5120013;28;20175;-81
2022/11/12 15:20:11;;;;;;;14.40;11.97;;;8.30;99.90;;;;;;5120666;28;20164;-81
2022/11/12 15:22:37;;;;;;;13.57;10.23;;;8.20;99.90;;;;;;5118797;28;20168;-81
2022/11/12 15:25:23;;;;;;;13.70;11.17;;;8.00;99.90;;;;;;5119459;28;20671;-82
2022/11/12 15:27:49;;;;;;;12.27;9.73;;;7.90;99.90;;;;;;5117212;28;20267;-81
2022/11/12 15:30:23;;;;;;;11.60;9.97;;;7.90;99.90;;;;;;5116304;28;20211;-80
2022/11/12 15:33:06;;;;;;;11.30;10.10;;;7.80;99.90;;;;;;5115908;28;20176;-79
2022/11/12 15:35:33;;;;;;;12.80;10.17;;;7.80;99.90;;;;;;5117216;28;20193;-80
2022/11/12 15:38:02;;;;;;;13.97;9.90;;;7.70;99.90;;;;;;5117731;28;20177;-80
2022/11/12 15:40:29;;;;;;;12.53;11.23;;;7.50;99.90;;;;;;5117739;28;20257;-81
2022/11/12 15:42:56;;;;;;;12.40;10.67;;;7.50;99.90;;;;;;5117751;28;20175;-81
2022/11/12 15:45:22;;;;;;;16.23;12.13;;;7.30;99.90;;;;;;5115512;28;20262;-81
2022/11/12 15:47:48;;;;;;;14.63;11.13;;;;;;;;;;5116003;28;20177;-81
2022/11/12 15:50:20;;;;;;;13.87;12.10;;;7.20;99.90;;;;;;5116709;28;20182;-81
2022/11/12 15:52:46;;;;;;;23.90;12.27;;;7.10;99.90;;;;;;5115941;28;20177;-80
2022/11/12 15:55:12;;;;;;;26.57;15.80;;;7.10;99.90;;;;;;5116923;28;20192;-80
2022/11/12 15:57:42;;;;;;;37.80;16.80;;;7.10;99.90;;;;;;5115697;28;20249;-82
2022/11/12 16:00:23;;;;;;;21.70;15.37;;;7.00;99.90;;;;;;5115708;28;20520;-82
2022/11/12 16:02:58;;;;;;;66.13;18.77;;;7.00;99.90;;;;;;5117172;28;20180;-81
2022/11/12 16:05:24;;;;;;;32.43;15.77;;;7.00;99.90;;;;;;5116735;28;20206;-81
2022/11/12 16:07:50;;;;;;;95.80;13.10;;;7.00;99.90;;;;;;5121110;28;20165;-81
2022/11/12 16:10:17;;;;;;;78.30;13.80;;;7.00;99.90;;;;;;5121743;28;20169;-80
2022/11/12 16:12:44;;;;;;;128.13;15.27;;;6.90;99.90;;;;;;5120814;28;20657;-80
2022/11/12 16:15:22;;;;;;;48.10;12.87;;;6.80;99.90;;;;;;5121275;28;20628;-81
2022/11/12 16:17:47;;;;;;;84.63;11.83;;;6.80;99.90;;;;;;5120409;28;20200;-80
2022/11/12 16:20:20;;;;;;;125.90;12.50;;;6.70;99.90;;;;;;5121390;28;20174;-81
2022/11/12 16:22:47;;;;;;;80.30;11.83;;;6.70;99.90;;;;;;5120925;28;20170;-80
2022/11/12 16:25:13;;;;;;;144.90;15.20;;;6.70;99.90;;;;;;5121503;28;20267;-82
2022/11/12 16:27:39;;;;;;;237.27;13.70;;;6.70;99.90;;;;;;5120942;28;20624;-82
2022/11/12 16:30:20;;;;;;;144.00;14.13;;;6.60;99.90;;;;;;5121118;28;20174;-81
2022/11/12 16:32:47;;;;;;;165.77;13.90;;;6.60;99.90;;;;;;5120956;28;20257;-80
2022/11/12 16:35:13;;;;;;;181.93;13.53;;;6.60;99.90;;;;;;5119369;28;20254;-80
2022/11/12 16:37:41;;;;;;;203.53;13.13;;;6.60;99.90;;;;;;5119695;28;20192;-80
2022/11/12 16:40:13;;;;;;;158.40;13.57;;;6.60;99.90;;;;;;5119925;28;20180;-80
2022/11/12 16:42:44;;;;;;;207.30;13.63;;;6.60;99.90;;;;;;5122537;28;20168;-81
2022/11/12 16:45:11;;;;;;;110.77;12.73;;;6.60;99.90;;;;;;5126614;28;20215;-80
2022/11/12 16:47:43;;;;;;;244.87;13.30;;;6.60;99.90;;;;;;5128721;28;20201;-82
2022/11/12 16:50:11;;;;;;;213.13;15.53;;;6.50;99.90;;;;;;5128248;28;20238;-79
2022/11/12 16:52:36;;;;;;;202.50;16.50;;;6.40;99.90;;;;;;5124149;28;20203;-80
2022/11/12 16:55:02;;;;;;;246.70;17.00;;;6.40;99.90;;;;;;5124629;28;20191;-82
2022/11/12 16:57:29;;;;;;;303.57;16.73;;;6.40;99.90;;;;;;5125132;28;20201;-80
2022/11/12 16:59:55;;;;;;;115.57;12.60;;;6.40;99.90;;;;;;5120373;28;20209;-81
2022/11/12 17:02:21;;;;;;;104.87;13.70;;;;;;;;;;5120712;28;20173;-81
2022/11/12 17:04:46;;;;;;;241.00;15.57;;;6.40;99.90;;;;;;5121253;28;20218;-81
2022/11/12 17:07:12;;;;;;;155.53;21.30;;;6.40;99.90;;;;;;5120603;28;20173;-79
2022/11/12 17:09:38;;;;;;;226.30;19.40;;;6.50;99.90;;;;;;5121841;28;20208;-78
2022/11/12 17:12:04;;;;;;;218.57;13.90;;;6.50;99.90;;;;;;5118761;28;20175;-79
2022/11/12 17:14:30;;;;;;;134.47;11.37;;;;;;;;;;5119217;28;20193;-79
2022/11/12 17:16:55;;;;;;;218.57;15.70;;;6.40;99.90;;;;;;5118300;28;20177;-81
2022/11/12 17:19:21;;;;;;;121.23;12.47;;;;;;;;;;5119774;28;20187;-78
2022/11/12 17:21:47;;;;;;;91.43;11.20;;;6.40;99.90;;;;;;5118822;28;20175;-79
2022/11/12 17:24:13;;;;;;;156.33;13.17;;;6.40;99.90;;;;;;5116998;28;20207;-79
2022/11/12 17:26:39;;;;;;;112.77;12.23;;;6.40;99.90;;;;;;5117010;28;20180;-80
2022/11/12 17:29:05;;;;;;;157.50;13.63;;;6.40;99.90;;;;;;5116889;28;20630;-79
2022/11/12 17:31:30;;;;;;;96.53;14.07;;;6.40;99.90;;;;;;5119823;28;20176;-79
2022/11/12 17:33:56;;;;;;;85.30;13.73;;;6.30;99.90;;;;;;5118837;28;20204;-80
2022/11/12 17:36:24;;;;;;;111.43;13.47;;;6.40;99.90;;;;;;5119448;28;20254;-78
2022/11/12 17:38:58;;;;;;;50.50;11.30;;;6.40;99.90;;;;;;5118177;28;20184;-79
2022/11/12 17:41:24;;;;;;;93.27;13.07;;;6.40;99.90;;;;;;5121633;28;20211;-78
2022/11/12 17:43:58;;;;;;;111.87;14.87;;;6.40;99.90;;;;;;5118804;28;20226;-78
2022/11/12 17:46:24;;;;;;;101.37;13.53;;;6.40;99.90;;;;;;5118790;28;20623;-78
2022/11/12 17:48:50;;;;;;;98.57;14.53;;;6.30;99.90;;;;;;5118948;28;20172;-79
2022/11/12 17:51:19;;;;;;;135.17;12.80;;;6.20;99.90;;;;;;5118778;28;20192;-80
2022/11/12 17:53:45;;;;;;;99.10;11.63;;;6.10;99.90;;;;;;5119067;28;20591;-79
2022/11/12 17:56:14;;;;;;;161.77;12.23;;;6.10;99.90;;;;;;5118325;28;20581;-81
2022/11/12 17:58:40;;;;;;;155.90;12.17;;;6.10;99.90;;;;;;5118659;28;20176;-79
2022/11/12 18:01:11;;;;;;;108.87;11.27;;;6.00;99.90;;;;;;5119436;28;20229;-79
2022/11/12 18:03:46;;;;;;;133.07;11.40;;;6.10;99.90;;;;;;5119176;28;20175;-80
2022/11/12 18:06:20;;;;;;;60.13;11.07;;;6.10;99.90;;;;;;5120159;28;20171;-79
2022/11/12 18:08:50;;;;;;;157.50;11.27;;;6.00;99.90;;;;;;5119756;28;20536;-78
2022/11/12 18:11:16;;;;;;;80.97;11.17;;;6.00;99.90;;;;;;5117480;28;20173;-79
2022/11/12 18:13:42;;;;;;;95.27;12.53;;;6.00;99.90;;;;;;5118825;28;20249;-79
2022/11/12 18:16:19;;;;;;;61.23;13.70;;;6.00;99.90;;;;;;5119037;28;20207;-79
2022/11/12 18:18:44;;;;;;;75.37;17.30;;;6.00;99.90;;;;;;5120502;28;20636;-78
2022/11/12 18:21:10;;;;;;;111.73;13.77;;;5.90;99.90;;;;;;5119711;28;20172;-79
2022/11/12 18:23:41;;;;;;;164.80;12.83;;;5.80;99.90;;;;;;5119012;28;20633;-78
2022/11/12 18:26:06;;;;;;;147.33;16.33;;;5.80;99.90;;;;;;5117078;28;20178;-80
2022/11/12 18:28:32;;;;;;;82.30;11.73;;;5.80;99.90;;;;;;5116139;28;20176;-78
2022/11/12 18:31:09;;;;;;;71.87;10.87;;;5.80;99.90;;;;;;5119307;28;20176;-78
2022/11/12 18:33:37;;;;;;;96.17;10.93;;;5.70;99.90;;;;;;5118817;28;20195;-78
2022/11/12 18:36:09;;;;;;;145.23;10.70;;;5.70;99.90;;;;;;5119924;28;20170;-78
2022/11/12 18:38:35;;;;;;;50.03;9.13;;;5.60;99.90;;;;;;5119169;28;20189;-77
2022/11/12 18:41:12;;;;;;;67.70;9.90;;;5.60;99.90;;;;;;5120192;28;20197;-77
2022/11/12 18:43:38;;;;;;;103.80;9.33;;;5.50;99.90;;;;;;5117903;28;20188;-79
2022/11/12 18:46:05;;;;;;;107.80;10.53;;;5.50;99.90;;;;;;5119206;28;20176;-78
2022/11/12 18:48:32;;;;;;;79.60;10.30;;;5.40;99.90;;;;;;5120131;28;20626;-78
2022/11/12 18:51:00;;;;;;;112.63;10.83;;;5.40;99.90;;;;;;5117291;28;20269;-79
2022/11/12 18:53:27;;;;;;;45.43;10.23;;;5.30;99.90;;;;;;5120319;28;20724;-78
2022/11/12 18:56:06;;;;;;;93.57;11.33;;;5.30;99.90;;;;;;5120032;28;20651;-78
2022/11/12 18:58:32;;;;;;;88.47;12.43;;;5.30;99.90;;;;;;5120258;28;20288;-77
2022/11/12 19:01:10;;;;;;;90.77;13.10;;;5.40;99.90;;;;;;5118876;28;20173;-78
2022/11/12 19:03:36;;;;;;;94.30;12.17;;;5.40;99.90;;;;;;5120604;28;20164;-78
2022/11/12 19:06:03;;;;;;;69.83;11.97;;;5.40;99.90;;;;;;5119070;28;20175;-79
2022/11/12 19:08:29;;;;;;;88.23;11.23;;;5.30;99.90;;;;;;5119758;28;20226;-78
2022/11/12 19:11:06;;;;;;;70.00;11.67;;;5.20;99.90;;;;;;5119179;28;20172;-79
2022/11/12 19:13:32;;;;;;;78.20;10.67;;;5.20;99.90;;;;;;5116602;28;20515;-79
2022/11/12 19:16:10;;;;;;;63.47;11.03;;;5.20;99.90;;;;;;5117751;28;20647;-78
2022/11/12 19:18:37;;;;;;;72.30;10.87;;;5.20;99.90;;;;;;5117545;28;20182;-78
2022/11/12 19:21:05;;;;;;;78.03;11.10;;;5.20;99.90;;;;;;5116799;28;20193;-78
2022/11/12 19:23:31;;;;;;;88.27;9.83;;;5.20;99.90;;;;;;5117706;28;20171;-80
2022/11/12 19:26:01;;;;;;;44.80;9.80;;;5.20;99.90;;;;;;5118554;28;20184;-79
2022/11/12 19:28:27;;;;;;;43.80;10.10;;;5.30;99.90;;;;;;5116595;28;20178;-77
2022/11/12 19:30:53;;;;;;;74.93;11.23;;;5.30;99.90;;;;;;5115879;28;20179;-78
2022/11/12 19:33:19;;;;;;;79.30;10.13;;;5.30;99.90;;;;;;5114899;28;20184;-78
2022/11/12 19:35:44;;;;;;;94.03;10.23;;;5.30;99.90;;;;;;5116786;28;20215;-79
2022/11/12 19:38:10;;;;;;;67.63;9.70;;;5.20;99.90;;;;;;5118489;28;20186;-79
2022/11/12 19:40:36;;;;;;;125.03;13.83;;;5.20;99.90;;;;;;5118435;28;20179;-78
2022/11/12 19:43:02;;;;;;;47.30;10.37;;;;;;;;;;5117866;28;20185;-77
2022/11/12 19:45:28;;;;;;;78.67;10.43;;;5.30;99.90;;;;;;5116468;28;20207;-77
2022/11/12 19:47:54;;;;;;;66.67;9.97;;;5.20;99.90;;;;;;5116729;28;20226;-78
